sensor_id;sensor_type;location;lat;lon;timestamp;P1;durP1;ratioP1;P2;durP2;ratioP2
38581;SDS011;24349;53.720;10.014;2022-11-20T00:53:21;8.35;;;4.53;;
38581;SDS011;24349;53.720;10.014;2022-11-20T00:56:16;7.75;;;4.55;;
38581;SDS011;24349;53.720;10.014;2022-11-20T00:58:44;9.18;;;4.90;;
38581;SDS011;24349;53.720;10.014;2022-11-20T01:01:17;7.70;;;4.10;;
38581;SDS011;24349;53.720;10.014;2022-11-20T01:03:48;8.48;;;4.68;;
38581;SDS011;24349;53.720;10.014;2022-11-20T01:08:45;8.98;;;4.47;;
38581;SDS011;24349;53.720;10.014;2022-11-20T01:11:13;8.48;;;4.72;;
38581;SDS011;24349;53.720;10.014;2022-11-20T01:13:45;7.57;;;4.32;;
38581;SDS011;24349;53.720;10.014;2022-11-20T01:16:12;8.40;;;5.18;;
38581;SDS011;24349;53.720;10.014;2022-11-20T01:18:39;7.45;;;4.95;;
38581;SDS011;24349;53.720;10.014;2022-11-20T01:21:07;8.25;;;4.97;;
38581;SDS011;24349;53.720;10.014;2022-11-20T01:23:36;10.65;;;5.72;;
38581;SDS011;24349;53.720;10.014;2022-11-20T01:26:04;9.30;;;5.18;;
38581;SDS011;24349;53.720;10.014;2022-11-20T01:28:34;10.52;;;5.00;;
38581;SDS011;24349;53.720;10.014;2022-11-20T01:31:01;9.45;;;5.22;;
38581;SDS011;24349;53.720;10.014;2022-11-20T01:33:34;8.65;;;5.53;;
38581;SDS011;24349;53.720;10.014;2022-11-20T01:36:04;8.43;;;4.85;;
38581;SDS011;24349;53.720;10.014;2022-11-20T01:38:31;8.38;;;5.35;;
38581;SDS011;24349;53.720;10.014;2022-11-20T01:40:56;7.82;;;4.93;;
38581;SDS011;24349;53.720;10.014;2022-11-20T01:43:23;10.05;;;5.45;;
38581;SDS011;24349;53.720;10.014;2022-11-20T01:49:24;8.00;;;4.53;;
38581;SDS011;24349;53.720;10.014;2022-11-20T07:10:58;8.48;;;5.25;;
38581;SDS011;24349;53.720;10.014;2022-11-20T07:13:26;10.32;;;5.63;;
38581;SDS011;24349;53.720;10.014;2022-11-20T07:15:54;9.10;;;6.35;;
38581;SDS011;24349;53.720;10.014;2022-11-20T07:18:24;9.05;;;5.00;;
38581;SDS011;24349;53.720;10.014;2022-11-20T07:20:49;8.52;;;5.20;;
38581;SDS011;24349;53.720;10.014;2022-11-20T07:23:15;7.53;;;5.20;;
38581;SDS011;24349;53.720;10.014;2022-11-20T07:25:41;8.45;;;4.90;;
38581;SDS011;24349;53.720;10.014;2022-11-20T07:28:07;9.82;;;6.03;;
38581;SDS011;24349;53.720;10.014;2022-11-20T07:30:33;9.48;;;5.70;;
38581;SDS011;24349;53.720;10.014;2022-11-20T07:33:06;8.98;;;5.68;;
38581;SDS011;24349;53.720;10.014;2022-11-20T07:35:38;9.52;;;5.00;;
38581;SDS011;24349;53.720;10.014;2022-11-20T07:38:04;10.25;;;6.63;;
38581;SDS011;24349;53.720;10.014;2022-11-20T07:48:57;10.05;;;6.10;;
38581;SDS011;24349;53.720;10.014;2022-11-20T07:51:24;12.00;;;7.32;;
38581;SDS011;24349;53.720;10.014;2022-11-20T11:42:20;6.63;;;3.85;;
38581;SDS011;24349;53.720;10.014;2022-11-20T11:47:29;5.53;;;3.30;;
38581;SDS011;24349;53.720;10.014;2022-11-20T11:52:42;6.18;;;3.80;;
38581;SDS011;24349;53.720;10.014;2022-11-20T12:06:51;6.35;;;3.97;;
38581;SDS011;24349;53.720;10.014;2022-11-20T12:14:58;6.22;;;3.72;;
38581;SDS011;24349;53.720;10.014;2022-11-20T12:22:44;5.75;;;3.20;;
38581;SDS011;24349;53.720;10.014;2022-11-20T12:25:27;5.30;;;3.30;;
38581;SDS011;24349;53.720;10.014;2022-11-20T12:28:18;5.68;;;3.50;;
38581;SDS011;24349;53.720;10.014;2022-11-20T12:31:17;4.20;;;2.28;;
38581;SDS011;24349;53.720;10.014;2022-11-20T12:36:39;4.95;;;2.80;;
38581;SDS011;24349;53.720;10.014;2022-11-20T12:42:23;8.13;;;4.05;;
38581;SDS011;24349;53.720;10.014;2022-11-20T13:07:42;5.20;;;3.10;;
38581;SDS011;24349;53.720;10.014;2022-11-20T13:10:18;5.63;;;3.47;;
38581;SDS011;24349;53.720;10.014;2022-11-20T13:13:11;4.78;;;2.67;;
38581;SDS011;24349;53.720;10.014;2022-11-20T13:18:21;6.07;;;3.28;;
38581;SDS011;24349;53.720;10.014;2022-11-20T13:20:55;7.63;;;3.60;;
38581;SDS011;24349;53.720;10.014;2022-11-20T13:24:06;6.10;;;3.60;;
38581;SDS011;24349;53.720;10.014;2022-11-20T13:29:19;8.77;;;4.68;;
38581;SDS011;24349;53.720;10.014;2022-11-20T13:31:46;8.43;;;4.15;;
38581;SDS011;24349;53.720;10.014;2022-11-20T13:44:38;5.20;;;2.90;;
38581;SDS011;24349;53.720;10.014;2022-11-20T13:49:49;5.88;;;3.30;;
38581;SDS011;24349;53.720;10.014;2022-11-20T14:00:44;7.60;;;3.53;;
38581;SDS011;24349;53.720;10.014;2022-11-20T14:05:55;7.03;;;3.97;;
38581;SDS011;24349;53.720;10.014;2022-11-20T14:08:31;6.37;;;3.77;;
38581;SDS011;24349;53.720;10.014;2022-11-20T14:11:12;6.00;;;3.60;;
38581;SDS011;24349;53.720;10.014;2022-11-20T14:14:04;6.30;;;3.42;;
38581;SDS011;24349;53.720;10.014;2022-11-20T14:16:47;6.18;;;3.88;;
38581;SDS011;24349;53.720;10.014;2022-11-20T14:21:48;8.27;;;5.10;;
38581;SDS011;24349;53.720;10.014;2022-11-20T14:27:04;10.18;;;5.53;;
38581;SDS011;24349;53.720;10.014;2022-11-20T14:32:30;8.75;;;6.07;;
38581;SDS011;24349;53.720;10.014;2022-11-20T14:34:59;8.82;;;5.50;;
38581;SDS011;24349;53.720;10.014;2022-11-20T14:37:36;10.82;;;6.43;;
38581;SDS011;24349;53.720;10.014;2022-11-20T14:40:05;10.75;;;6.88;;
38581;SDS011;24349;53.720;10.014;2022-11-20T14:42:51;8.75;;;5.97;;
38581;SDS011;24349;53.720;10.014;2022-11-20T14:45:17;11.65;;;7.22;;
38581;SDS011;24349;53.720;10.014;2022-11-20T14:47:44;7.18;;;4.97;;
38581;SDS011;24349;53.720;10.014;2022-11-20T14:50:29;15.32;;;9.55;;
38581;SDS011;24349;53.720;10.014;2022-11-20T14:52:59;12.90;;;8.35;;
38581;SDS011;24349;53.720;10.014;2022-11-20T14:55:36;7.97;;;5.20;;
38581;SDS011;24349;53.720;10.014;2022-11-20T14:58:03;11.70;;;6.85;;
38581;SDS011;24349;53.720;10.014;2022-11-20T16:49:30;9.25;;;6.88;;
38581;SDS011;24349;53.720;10.014;2022-11-20T16:51:58;13.18;;;8.57;;
38581;SDS011;24349;53.720;10.014;2022-11-20T16:54:24;11.55;;;7.63;;
38581;SDS011;24349;53.720;10.014;2022-11-20T17:02:00;9.50;;;6.65;;
38581;SDS011;24349;53.720;10.014;2022-11-20T17:04:27;9.30;;;6.85;;
38581;SDS011;24349;53.720;10.014;2022-11-20T17:37:40;11.85;;;8.27;;
38581;SDS011;24349;53.720;10.014;2022-11-20T17:40:06;14.05;;;11.27;;
38581;SDS011;24349;53.720;10.014;2022-11-20T17:50:26;12.90;;;9.05;;
38581;SDS011;24349;53.720;10.014;2022-11-20T17:53:07;13.43;;;9.60;;
38581;SDS011;24349;53.720;10.014;2022-11-20T17:55:35;13.32;;;10.07;;
38581;SDS011;24349;53.720;10.014;2022-11-20T18:08:44;9.45;;;6.13;;
38581;SDS011;24349;53.720;10.014;2022-11-20T18:19:12;18.85;;;12.68;;
38581;SDS011;24349;53.720;10.014;2022-11-20T18:21:43;17.38;;;12.65;;
38581;SDS011;24349;53.720;10.014;2022-11-20T18:24:12;16.67;;;11.65;;
38581;SDS011;24349;53.720;10.014;2022-11-20T18:26:38;22.17;;;13.88;;
38581;SDS011;24349;53.720;10.014;2022-11-20T18:29:04;17.77;;;12.43;;
38581;SDS011;24349;53.720;10.014;2022-11-20T18:31:30;16.90;;;12.02;;
38581;SDS011;24349;53.720;10.014;2022-11-20T18:33:56;20.63;;;13.65;;
38581;SDS011;24349;53.720;10.014;2022-11-20T18:36:23;13.10;;;9.32;;
38581;SDS011;24349;53.720;10.014;2022-11-20T18:38:50;9.75;;;7.03;;
38581;SDS011;24349;53.720;10.014;2022-11-20T18:41:18;8.75;;;5.80;;
38581;SDS011;24349;53.720;10.014;2022-11-20T18:44:05;10.88;;;5.95;;
38581;SDS011;24349;53.720;10.014;2022-11-20T18:46:54;10.85;;;7.07;;
38581;SDS011;24349;53.720;10.014;2022-11-20T18:49:19;12.65;;;8.70;;
38581;SDS011;24349;53.720;10.014;2022-11-20T18:51:45;10.45;;;7.15;;
38581;SDS011;24349;53.720;10.014;2022-11-20T18:54:11;13.82;;;9.57;;
38581;SDS011;24349;53.720;10.014;2022-11-20T18:56:40;14.85;;;10.95;;
38581;SDS011;24349;53.720;10.014;2022-11-20T18:59:08;13.77;;;9.20;;
38581;SDS011;24349;53.720;10.014;2022-11-20T19:01:35;14.40;;;9.80;;
38581;SDS011;24349;53.720;10.014;2022-11-20T19:04:05;20.38;;;13.90;;
38581;SDS011;24349;53.720;10.014;2022-11-20T19:06:35;20.23;;;13.48;;
38581;SDS011;24349;53.720;10.014;2022-11-20T19:09:03;30.35;;;19.30;;
38581;SDS011;24349;53.720;10.014;2022-11-20T19:11:29;19.20;;;12.77;;
38581;SDS011;24349;53.720;10.014;2022-11-20T19:13:58;16.55;;;11.65;;
38581;SDS011;24349;53.720;10.014;2022-11-20T19:16:26;13.65;;;10.57;;
38581;SDS011;24349;53.720;10.014;2022-11-20T19:18:53;18.50;;;12.15;;
38581;SDS011;24349;53.720;10.014;2022-11-20T19:21:20;17.15;;;12.27;;
38581;SDS011;24349;53.720;10.014;2022-11-20T19:23:48;15.63;;;10.70;;
38581;SDS011;24349;53.720;10.014;2022-11-20T19:26:15;12.63;;;9.52;;
38581;SDS011;24349;53.720;10.014;2022-11-20T19:28:41;15.68;;;11.38;;
38581;SDS011;24349;53.720;10.014;2022-11-20T19:31:11;16.27;;;11.95;;
38581;SDS011;24349;53.720;10.014;2022-11-20T19:33:41;16.15;;;12.00;;
38581;SDS011;24349;53.720;10.014;2022-11-20T19:36:15;20.17;;;13.98;;
38581;SDS011;24349;53.720;10.014;2022-11-20T19:38:42;17.48;;;12.60;;
38581;SDS011;24349;53.720;10.014;2022-11-20T19:41:15;16.42;;;11.57;;
38581;SDS011;24349;53.720;10.014;2022-11-20T19:43:43;18.65;;;12.45;;
38581;SDS011;24349;53.720;10.014;2022-11-20T19:46:13;20.73;;;15.60;;
38581;SDS011;24349;53.720;10.014;2022-11-20T19:48:42;18.73;;;14.00;;
38581;SDS011;24349;53.720;10.014;2022-11-20T19:51:09;19.08;;;14.15;;
38581;SDS011;24349;53.720;10.014;2022-11-20T19:53:37;20.00;;;13.48;;
38581;SDS011;24349;53.720;10.014;2022-11-20T19:56:03;19.70;;;15.32;;
38581;SDS011;24349;53.720;10.014;2022-11-20T19:58:29;20.75;;;15.98;;
38581;SDS011;24349;53.720;10.014;2022-11-20T20:00:55;21.52;;;15.77;;
38581;SDS011;24349;53.720;10.014;2022-11-20T20:03:21;17.75;;;13.50;;
38581;SDS011;24349;53.720;10.014;2022-11-20T20:05:47;24.85;;;19.40;;
38581;SDS011;24349;53.720;10.014;2022-11-20T20:08:12;25.60;;;19.65;;
38581;SDS011;24349;53.720;10.014;2022-11-20T20:10:38;25.27;;;19.83;;
38581;SDS011;24349;53.720;10.014;2022-11-20T20:13:04;27.20;;;20.00;;
38581;SDS011;24349;53.720;10.014;2022-11-20T20:15:30;22.52;;;15.57;;
38581;SDS011;24349;53.720;10.014;2022-11-20T20:17:56;22.80;;;16.20;;
38581;SDS011;24349;53.720;10.014;2022-11-20T20:20:22;21.70;;;16.25;;
38581;SDS011;24349;53.720;10.014;2022-11-20T20:22:48;22.52;;;16.45;;
38581;SDS011;24349;53.720;10.014;2022-11-20T20:25:13;28.90;;;21.42;;
38581;SDS011;24349;53.720;10.014;2022-11-20T20:27:39;28.38;;;20.08;;
38581;SDS011;24349;53.720;10.014;2022-11-20T20:30:06;21.98;;;16.20;;
38581;SDS011;24349;53.720;10.014;2022-11-20T20:32:32;22.27;;;16.80;;
38581;SDS011;24349;53.720;10.014;2022-11-20T20:34:58;25.02;;;17.50;;
38581;SDS011;24349;53.720;10.014;2022-11-20T20:37:25;27.73;;;20.30;;
38581;SDS011;24349;53.720;10.014;2022-11-20T20:39:51;23.17;;;17.30;;
38581;SDS011;24349;53.720;10.014;2022-11-20T20:42:16;30.27;;;22.30;;
38581;SDS011;24349;53.720;10.014;2022-11-20T20:44:42;26.52;;;19.02;;
38581;SDS011;24349;53.720;10.014;2022-11-20T20:47:30;20.73;;;15.30;;
38581;SDS011;24349;53.720;10.014;2022-11-20T20:50:01;21.55;;;15.65;;
38581;SDS011;24349;53.720;10.014;2022-11-20T20:52:30;26.80;;;18.52;;
38581;SDS011;24349;53.720;10.014;2022-11-20T20:54:56;23.55;;;17.10;;
38581;SDS011;24349;53.720;10.014;2022-11-20T20:57:25;22.65;;;15.77;;
38581;SDS011;24349;53.720;10.014;2022-11-20T20:59:52;26.27;;;19.58;;
38581;SDS011;24349;53.720;10.014;2022-11-20T21:02:19;81.75;;;21.52;;
38581;SDS011;24349;53.720;10.014;2022-11-20T21:04:46;48.22;;;28.85;;
38581;SDS011;24349;53.720;10.014;2022-11-20T21:07:12;33.40;;;23.92;;
38581;SDS011;24349;53.720;10.014;2022-11-20T21:09:37;24.98;;;16.95;;
38581;SDS011;24349;53.720;10.014;2022-11-20T21:12:03;21.23;;;15.95;;
38581;SDS011;24349;53.720;10.014;2022-11-20T21:14:29;22.35;;;16.55;;
38581;SDS011;24349;53.720;10.014;2022-11-20T21:16:55;22.40;;;16.60;;
38581;SDS011;24349;53.720;10.014;2022-11-20T21:19:21;25.63;;;18.40;;
38581;SDS011;24349;53.720;10.014;2022-11-20T21:21:46;26.45;;;18.75;;
38581;SDS011;24349;53.720;10.014;2022-11-20T21:26:57;31.27;;;21.92;;
38581;SDS011;24349;53.720;10.014;2022-11-20T21:29:24;22.38;;;15.85;;
38581;SDS011;24349;53.720;10.014;2022-11-20T21:31:51;26.42;;;18.50;;
38581;SDS011;24349;53.720;10.014;2022-11-20T21:34:18;25.88;;;17.80;;
38581;SDS011;24349;53.720;10.014;2022-11-20T21:36:44;32.58;;;22.95;;
38581;SDS011;24349;53.720;10.014;2022-11-20T21:39:10;40.83;;;28.35;;
38581;SDS011;24349;53.720;10.014;2022-11-20T21:41:37;39.10;;;27.52;;
38581;SDS011;24349;53.720;10.014;2022-11-20T21:44:04;21.80;;;16.77;;
38581;SDS011;24349;53.720;10.014;2022-11-20T21:46:31;23.60;;;17.08;;
38581;SDS011;24349;53.720;10.014;2022-11-20T21:48:57;24.10;;;17.38;;
38581;SDS011;24349;53.720;10.014;2022-11-20T21:51:24;24.42;;;17.70;;
38581;SDS011;24349;53.720;10.014;2022-11-20T21:53:52;25.13;;;18.95;;
38581;SDS011;24349;53.720;10.014;2022-11-20T21:56:19;33.25;;;23.33;;
38581;SDS011;24349;53.720;10.014;2022-11-20T21:58:47;22.60;;;16.88;;
38581;SDS011;24349;53.720;10.014;2022-11-20T22:01:18;28.40;;;19.30;;
38581;SDS011;24349;53.720;10.014;2022-11-20T22:03:46;32.15;;;21.08;;
38581;SDS011;24349;53.720;10.014;2022-11-20T22:06:13;31.23;;;21.88;;
38581;SDS011;24349;53.720;10.014;2022-11-20T22:08:39;30.88;;;20.75;;
38581;SDS011;24349;53.720;10.014;2022-11-20T22:11:06;28.33;;;18.80;;
38581;SDS011;24349;53.720;10.014;2022-11-20T22:13:36;26.27;;;18.20;;
38581;SDS011;24349;53.720;10.014;2022-11-20T22:16:21;26.13;;;16.75;;
38581;SDS011;24349;53.720;10.014;2022-11-20T22:18:48;22.90;;;15.10;;
38581;SDS011;24349;53.720;10.014;2022-11-20T22:21:16;22.38;;;15.93;;
38581;SDS011;24349;53.720;10.014;2022-11-20T22:23:42;20.23;;;15.43;;
38581;SDS011;24349;53.720;10.014;2022-11-20T22:26:12;33.20;;;23.10;;
38581;SDS011;24349;53.720;10.014;2022-11-20T22:28:39;35.58;;;24.70;;
38581;SDS011;24349;53.720;10.014;2022-11-20T22:31:06;26.70;;;19.38;;
38581;SDS011;24349;53.720;10.014;2022-11-20T22:33:33;31.50;;;20.67;;
38581;SDS011;24349;53.720;10.014;2022-11-20T22:36:10;27.35;;;19.85;;
38581;SDS011;24349;53.720;10.014;2022-11-20T22:38:40;25.95;;;17.92;;
38581;SDS011;24349;53.720;10.014;2022-11-20T22:41:12;21.58;;;15.18;;
38581;SDS011;24349;53.720;10.014;2022-11-20T22:43:40;19.13;;;13.32;;
38581;SDS011;24349;53.720;10.014;2022-11-20T22:46:15;21.58;;;14.43;;
38581;SDS011;24349;53.720;10.014;2022-11-20T22:48:51;113.82;;;25.20;;
38581;SDS011;24349;53.720;10.014;2022-11-20T22:51:18;53.88;;;26.23;;
38581;SDS011;24349;53.720;10.014;2022-11-20T22:53:46;36.90;;;25.23;;
38581;SDS011;24349;53.720;10.014;2022-11-20T22:56:13;23.75;;;16.38;;
38581;SDS011;24349;53.720;10.014;2022-11-20T22:58:40;21.30;;;15.15;;
38581;SDS011;24349;53.720;10.014;2022-11-20T23:03:59;26.85;;;19.42;;
38581;SDS011;24349;53.720;10.014;2022-11-20T23:06:26;26.90;;;20.67;;
38581;SDS011;24349;53.720;10.014;2022-11-20T23:08:53;31.42;;;19.83;;
38581;SDS011;24349;53.720;10.014;2022-11-20T23:11:23;30.35;;;20.65;;
38581;SDS011;24349;53.720;10.014;2022-11-20T23:13:51;25.33;;;18.23;;
38581;SDS011;24349;53.720;10.014;2022-11-20T23:16:19;22.05;;;15.93;;
38581;SDS011;24349;53.720;10.014;2022-11-20T23:18:44;61.85;;;20.38;;
38581;SDS011;24349;53.720;10.014;2022-11-20T23:21:11;40.15;;;26.52;;
38581;SDS011;24349;53.720;10.014;2022-11-20T23:23:38;22.13;;;16.35;;
38581;SDS011;24349;53.720;10.014;2022-11-20T23:26:06;27.65;;;19.65;;
38581;SDS011;24349;53.720;10.014;2022-11-20T23:28:35;24.60;;;15.57;;
38581;SDS011;24349;53.720;10.014;2022-11-20T23:31:02;22.55;;;16.10;;
38581;SDS011;24349;53.720;10.014;2022-11-20T23:33:28;20.58;;;15.05;;
38581;SDS011;24349;53.720;10.014;2022-11-20T23:35:55;23.40;;;16.67;;
38581;SDS011;24349;53.720;10.014;2022-11-20T23:38:20;19.80;;;13.95;;
38581;SDS011;24349;53.720;10.014;2022-11-20T23:40:47;22.55;;;15.05;;
38581;SDS011;24349;53.720;10.014;2022-11-20T23:43:13;25.38;;;17.20;;
38581;SDS011;24349;53.720;10.014;2022-11-20T23:45:44;22.88;;;16.27;;
38581;SDS011;24349;53.720;10.014;2022-11-20T23:48:14;20.42;;;14.60;;
38581;SDS011;24349;53.720;10.014;2022-11-20T23:50:40;21.45;;;14.85;;
38581;SDS011;24349;53.720;10.014;2022-11-20T23:53:07;26.48;;;18.45;;
38581;SDS011;24349;53.720;10.014;2022-11-20T23:55:33;20.33;;;13.95;;
38581;SDS011;24349;53.720;10.014;2022-11-20T23:57:59;23.33;;;15.90;;
